Time;durP1;ratioP1;P1;durP2;ratioP2;P2;SDS_P1;SDS_P2;PMS_P1;PMS_P2;Temp;Humidity;BMP_temperature;BMP_pressure;BME280_temperature;BME280_humidity;BME280_pressure;Samples;Min_cycle;Max_cycle;Signal;HPM_P1;HPM_P2
2021/03/20 00:00:35;;;;;;;21.00;10.43;;;;;;;0.53;100.00;93037.25;4990444;28;20047;-77
2021/03/20 00:03:02;;;;;;;21.20;11.23;;;;;;;0.52;100.00;93035.69;4990348;28;20101;-78
2021/03/20 00:05:31;;;;;;;21.60;10.05;;;;;;;0.53;100.00;93039.78;4990288;28;20818;-78
2021/03/20 00:07:57;;;;;;;17.85;8.88;;;;;;;0.55;100.00;93048.00;4990478;28;20465;-78
2021/03/20 00:10:25;;;;;;;15.35;9.85;;;;;;;0.59;100.00;93046.75;4990423;28;20038;-78
2021/03/20 00:12:53;;;;;;;19.40;8.63;;;;;;;0.52;100.00;93028.09;4989990;28;20060;-77
2021/03/20 00:15:24;;;;;;;14.88;7.35;;;;;;;0.64;100.00;93048.81;4990485;28;20054;-77
2021/03/20 00:17:51;;;;;;;27.65;12.18;;;;;;;0.61;100.00;93049.16;4990112;28;20089;-77
2021/03/20 00:20:21;;;;;;;20.30;9.70;;;;;;;0.59;100.00;93053.53;4990459;28;20046;-77
2021/03/20 00:22:48;;;;;;;19.05;9.32;;;;;;;0.62;100.00;93054.06;4990078;28;20054;-77
2021/03/20 00:25:14;;;;;;;;;;;;;;;0.61;100.00;93059.25;4990403;28;20519;-77
2021/03/20 00:27:40;;;;;;;23.50;10.38;;;;;;;0.54;100.00;93046.41;4990290;28;20318;-77
2021/03/20 00:30:08;;;;;;;16.20;9.48;;;;;;;0.55;100.00;93047.22;4989899;28;20495;-77
2021/03/20 00:32:35;;;;;;;18.50;8.70;;;;;;;0.56;100.00;93049.59;4989950;28;20492;-77
2021/03/20 00:35:03;;;;;;;17.55;10.30;;;;;;;0.56;100.00;93053.88;4990036;28;20154;-77
2021/03/20 00:37:30;;;;;;;18.08;10.38;;;;;;;0.55;100.00;93042.16;4989758;28;20050;-77
2021/03/20 00:39:56;;;;;;;19.58;10.45;;;;;;;0.54;100.00;93043.91;4990285;28;20073;-77
2021/03/20 00:42:22;;;;;;;19.63;9.57;;;;;;;0.50;100.00;93040.09;4989932;28;20549;-77
2021/03/20 00:44:49;;;;;;;20.55;10.88;;;;;;;0.44;100.00;93041.50;4989665;28;20050;-76
2021/03/20 00:47:15;;;;;;;18.63;8.82;;;;;;;0.40;100.00;93037.69;4989755;28;20043;-76
2021/03/20 00:49:42;;;;;;;16.35;8.98;;;;;;;0.43;100.00;93052.56;4990078;28;20050;-77
2021/03/20 00:52:09;;;;;;;21.63;9.43;;;;;;;0.37;100.00;93051.41;4989957;28;20060;-77
2021/03/20 00:54:35;;;;;;;12.55;7.50;;;;;;;0.38;100.00;93055.50;4990256;28;20112;-77
2021/03/20 00:57:01;;;;;;;;;;;;;;;0.36;100.00;93049.03;4990039;28;20500;-77
2021/03/20 00:59:27;;;;;;;14.20;7.03;;;;;;;0.34;100.00;93049.19;4990074;28;20306;-76
2021/03/20 01:01:54;;;;;;;14.13;6.88;;;;;;;0.37;100.00;93045.59;4989614;28;20519;-77
2021/03/20 01:04:20;;;;;;;;;;;;;;;0.34;100.00;93046.66;4990152;28;20046;-76
2021/03/20 01:06:47;;;;;;;11.90;6.90;;;;;;;0.29;100.00;93037.94;4989683;28;20417;-77
2021/03/20 01:09:13;;;;;;;15.60;7.18;;;;;;;0.28;100.00;93034.66;4990195;28;20058;-77
2021/03/20 01:11:40;;;;;;;14.18;7.72;;;;;;;0.31;100.00;93034.31;4989946;28;21457;-77
2021/03/20 01:14:26;;;;;;;;;;;;;;;0.36;100.00;93033.88;4989942;28;20574;-77
2021/03/20 01:16:52;;;;;;;13.30;7.68;;;;;;;0.33;100.00;93027.38;4989277;28;19933;-77
2021/03/20 01:19:18;;;;;;;30.80;12.77;;;;;;;0.35;100.00;93024.72;4989536;28;20051;-77
2021/03/20 01:21:44;;;;;;;;;;;;;;;0.39;100.00;93031.06;4990192;28;20050;-77
2021/03/20 01:24:12;;;;;;;33.78;14.30;;;;;;;0.30;100.00;93025.16;4989205;28;19933;-77
2021/03/20 01:26:38;;;;;;;16.73;9.30;;;;;;;0.36;100.00;93028.81;4989689;28;20055;-77
2021/03/20 01:29:05;;;;;;;12.57;8.15;;;;;;;0.28;100.00;93019.50;4989391;28;20081;-77
2021/03/20 01:31:31;;;;;;;12.50;8.27;;;;;;;0.22;100.00;93030.97;4989562;28;20050;-77
2021/03/20 01:33:58;;;;;;;11.95;7.30;;;;;;;0.26;100.00;93024.69;4989461;28;20054;-77
2021/03/20 01:36:24;;;;;;;16.23;9.02;;;;;;;0.33;100.00;93034.19;4991976;28;20050;-77
2021/03/20 01:38:51;;;;;;;16.27;8.60;;;;;;;0.31;100.00;93036.06;4992894;28;20050;-78
2021/03/20 01:41:21;;;;;;;14.10;8.07;;;;;;;0.30;100.00;93037.81;4993186;28;20496;-78
2021/03/20 01:43:48;;;;;;;20.55;8.10;;;;;;;0.35;100.00;93042.41;4993413;28;20054;-77
2021/03/20 01:46:43;;;;;;;16.27;8.05;;;;;;;0.39;100.00;93043.69;4993295;28;20054;-78
2021/03/20 01:49:16;;;;;;;15.05;8.60;;;;;;;0.48;100.00;93036.94;4992752;28;20061;-77
2021/03/20 01:51:44;;;;;;;18.15;10.10;;;;;;;0.62;100.00;93038.09;4993524;28;20408;-77
2021/03/20 01:54:11;;;;;;;21.45;7.70;;;;;;;0.58;100.00;93026.69;4980756;28;20061;-78
2021/03/20 01:56:43;;;;;;;16.48;7.70;;;;;;;0.56;100.00;93034.44;4993198;28;20050;-78
2021/03/20 01:59:11;;;;;;;15.13;9.55;;;;;;;0.68;100.00;93029.09;4992893;28;20061;-77
2021/03/20 02:01:38;;;;;;;18.02;9.63;;;;;;;0.59;100.00;93026.53;4993164;28;20561;-78
2021/03/20 02:04:04;;;;;;;21.77;8.07;;;;;;;0.74;100.00;93033.56;4992784;28;20046;-79
2021/03/20 02:06:31;;;;;;;18.90;8.68;;;;;;;0.62;100.00;93018.66;4992746;28;20050;-78
2021/03/20 02:09:00;;;;;;;17.13;7.13;;;;;;;0.73;100.00;93026.88;4992597;28;20554;-78
2021/03/20 02:11:30;;;;;;;14.63;7.72;;;;;;;0.82;100.00;93035.31;4993116;28;20050;-78
2021/03/20 02:14:08;;;;;;;16.63;7.47;;;;;;;0.89;100.00;93033.75;4992757;28;20051;-79
2021/03/20 02:16:39;;;;;;;16.27;8.52;;;;;;;0.80;100.00;93021.06;4992428;28;20055;-78
2021/03/20 02:19:24;;;;;;;13.55;5.53;;;;;;;0.80;100.00;93028.66;4992829;28;20419;-78
2021/03/20 02:21:57;;;;;;;12.07;6.25;;;;;;;0.79;100.00;93024.53;4992620;28;20165;-78
2021/03/20 02:24:58;;;;;;;12.40;6.72;;;;;;;0.75;100.00;93020.72;4992493;28;20046;-78
2021/03/20 02:28:01;;;;;;;9.98;5.50;;;;;;;0.79;100.00;93031.34;4988672;28;20051;-78
2021/03/20 02:31:18;;;;;;;13.52;5.82;;;;;;;0.75;100.00;93032.59;4992580;28;20062;-77
2021/03/20 02:33:59;;;;;;;9.20;4.82;;;;;;;0.76;100.00;93041.75;4992668;28;20085;-77
2021/03/20 02:36:33;;;;;;;9.55;5.28;;;;;;;0.75;100.00;93035.91;4992231;28;20137;-77
2021/03/20 02:39:05;;;;;;;12.30;5.80;;;;;;;0.78;100.00;93044.91;4991989;28;20043;-78
2021/03/20 02:41:36;;;;;;;10.68;6.22;;;;;;;0.82;100.00;93038.63;4991823;28;20046;-77
2021/03/20 02:44:11;;;;;;;13.35;6.88;;;;;;;0.85;100.00;93029.94;4992272;28;20042;-77
2021/03/20 02:46:44;;;;;;;9.50;5.00;;;;;;;0.93;99.94;93037.56;4991507;28;20050;-77
2021/03/20 02:49:17;;;;;;;10.90;5.40;;;;;;;0.84;98.97;93019.03;4991620;28;20065;-78
2021/03/20 02:51:49;;;;;;;12.30;6.95;;;;;;;0.97;98.98;93033.75;4991856;28;20051;-78
2021/03/20 02:54:20;;;;;;;7.88;4.43;;;;;;;0.93;97.77;93025.69;4991800;28;20055;-77
2021/03/20 02:56:55;;;;;;;11.07;6.03;;;;;;;0.95;97.28;93027.25;4991965;28;20421;-77
2021/03/20 02:59:29;;;;;;;6.47;3.42;;;;;;;0.89;97.79;93036.28;4991868;28;20043;-78
2021/03/20 03:02:01;;;;;;;9.75;5.07;;;;;;;0.62;99.56;93030.50;4991981;28;20050;-77
2021/03/20 03:04:32;;;;;;;8.00;5.22;;;;;;;0.73;99.22;93037.81;4991605;28;20058;-77
2021/03/20 03:07:05;;;;;;;6.72;3.80;;;;;;;0.63;98.89;93024.50;4991749;28;20092;-77
2021/03/20 03:09:37;;;;;;;9.20;4.43;;;;;;;0.70;99.66;93037.31;4991725;28;20057;-77
2021/03/20 03:12:09;;;;;;;7.43;4.32;;;;;;;0.74;99.54;93038.59;4991238;28;20467;-78
2021/03/20 03:14:40;;;;;;;11.90;4.70;;;;;;;0.76;99.58;93044.28;4991263;28;20514;-78
2021/03/20 03:17:08;;;;;;;12.75;4.70;;;;;;;0.77;99.32;93031.50;4991614;28;20455;-78
2021/03/20 03:19:42;;;;;;;10.95;4.65;;;;;;;0.89;99.07;93039.56;4991246;28;20046;-78
2021/03/20 03:22:24;;;;;;;8.63;4.50;;;;;;;0.92;97.97;93036.75;4991500;28;20053;-77
2021/03/20 03:24:56;;;;;;;12.05;5.10;;;;;;;0.92;97.67;93041.81;4991332;28;20050;-77
2021/03/20 03:27:24;;;;;;;7.00;3.05;;;;;;;0.89;97.86;93028.69;4991396;28;20415;-77
2021/03/20 03:29:51;;;;;;;7.97;4.88;;;;;;;0.93;97.73;93038.31;4991491;28;20047;-78
2021/03/20 03:32:24;;;;;;;13.95;6.85;;;;;;;0.65;97.34;93018.34;4991030;28;20081;-78
2021/03/20 03:34:57;;;;;;;14.85;4.88;;;;;;;0.83;97.79;93047.78;4990694;28;20510;-77
2021/03/20 03:37:34;;;;;;;10.60;4.70;;;;;;;0.86;97.92;93049.22;4991253;28;20456;-77
2021/03/20 03:40:07;;;;;;;10.90;5.10;;;;;;;0.86;98.06;93052.53;4991021;28;20133;-78
2021/03/20 03:42:34;;;;;;;10.68;5.35;;;;;;;0.82;97.82;93047.97;4991525;28;20057;-77
2021/03/20 03:45:00;;;;;;;8.32;4.68;;;;;;;0.85;98.03;93040.03;4991595;28;20105;-77
2021/03/20 03:47:33;;;;;;;8.80;3.38;;;;;;;0.70;98.07;93004.47;4990849;28;20138;-78
2021/03/20 03:50:06;;;;;;;8.18;5.00;;;;;;;0.89;97.89;93031.97;4990712;28;20439;-78
2021/03/20 03:52:32;;;;;;;6.05;4.93;;;;;;;0.79;96.89;93006.06;4990751;28;20097;-78
2021/03/20 03:54:58;;;;;;;;;;;;;;;0.87;97.04;93033.09;4990844;28;20069;-78
2021/03/20 03:57:49;;;;;;;6.18;4.40;;;;;;;0.72;97.32;93015.19;4990705;28;20286;-78
2021/03/20 04:00:26;;;;;;;13.77;5.88;;;;;;;0.78;98.53;93024.69;4990510;28;20096;-78
2021/03/20 04:03:22;;;;;;;8.07;3.97;;;;;;;0.79;98.66;93029.59;4990690;28;20057;-78
2021/03/20 04:06:01;;;;;;;6.10;3.22;;;;;;;0.82;97.24;93018.38;4990688;28;20058;-78
2021/03/20 04:08:36;;;;;;;5.18;3.15;;;;;;;0.86;97.64;93029.78;4990714;28;20047;-78
2021/03/20 04:11:11;;;;;;;9.57;5.13;;;;;;;0.78;98.14;93017.09;4990284;28;20492;-79
2021/03/20 04:13:43;;;;;;;11.20;5.18;;;;;;;0.73;97.75;93011.72;4990346;28;20503;-78
2021/03/20 04:16:15;;;;;;;7.93;3.97;;;;;;;0.86;97.75;93018.88;4990215;28;20133;-78
2021/03/20 04:18:49;;;;;;;6.75;3.45;;;;;;;0.74;98.61;93014.09;4990584;28;20046;-78
2021/03/20 04:21:27;;;;;;;6.78;4.20;;;;;;;0.76;98.56;93011.41;4990342;28;20046;-78
2021/03/20 04:24:07;;;;;;;8.63;4.40;;;;;;;0.84;98.34;93020.75;4990073;28;20112;-78
2021/03/20 04:26:40;;;;;;;7.03;4.45;;;;;;;0.81;98.83;93026.91;4990097;28;20050;-78
2021/03/20 04:29:16;;;;;;;14.88;6.47;;;;;;;0.76;98.91;93013.94;4990329;28;20089;-77
2021/03/20 04:31:49;;;;;;;20.02;6.90;;;;;;;0.76;99.98;93024.06;4989921;28;20054;-77
2021/03/20 04:34:21;;;;;;;16.80;6.00;;;;;;;0.77;100.00;93033.22;4990473;28;20053;-77
2021/03/20 04:36:52;;;;;;;15.40;6.43;;;;;;;0.79;99.83;93031.34;4990230;28;20053;-77
2021/03/20 04:39:22;;;;;;;10.07;5.57;;;;;;;0.78;99.87;93025.50;4989880;28;20046;-77
2021/03/20 04:41:50;;;;;;;13.82;8.15;;;;;;;0.79;100.00;93021.25;4990139;28;20050;-78
2021/03/20 04:44:18;;;;;;;15.63;6.03;;;;;;;0.80;99.52;93031.19;4990170;28;20458;-78
2021/03/20 04:46:45;;;;;;;9.73;4.68;;;;;;;0.82;99.71;93027.72;4989797;28;20050;-78
2021/03/20 04:49:24;;;;;;;10.80;5.60;;;;;;;0.73;99.86;93012.53;4989875;28;20136;-78
2021/03/20 04:52:04;;;;;;;9.35;5.75;;;;;;;0.85;99.33;93032.47;4989422;28;20065;-78
2021/03/20 04:54:30;;;;;;;15.73;7.70;;;;;;;0.86;99.86;93024.72;4989786;28;20061;-78
2021/03/20 04:57:03;;;;;;;13.15;6.18;;;;;;;0.85;99.78;93017.28;4989971;28;20061;-78
2021/03/20 04:59:48;;;;;;;11.07;6.35;;;;;;;0.89;99.62;93028.69;4989860;28;20054;-78
2021/03/20 05:02:22;;;;;;;12.20;7.38;;;;;;;0.92;100.00;93025.81;4989832;28;20078;-79
2021/03/20 05:04:53;;;;;;;12.52;6.43;;;;;;;0.96;99.51;93019.53;4989878;28;20046;-79
2021/03/20 05:07:20;;;;;;;10.13;5.78;;;;;;;1.02;99.38;93029.00;4989968;28;20144;-79
2021/03/20 05:09:56;;;;;;;19.42;9.68;;;;;;;1.00;99.89;93032.63;4989959;28;20056;-79
2021/03/20 05:12:26;;;;;;;16.42;7.97;;;;;;;0.92;100.00;93029.16;4993502;28;20142;-80
2021/03/20 05:14:57;;;;;;;12.55;6.38;;;;;;;0.93;100.00;93038.31;5002782;28;20046;-79
2021/03/20 05:17:24;;;;;;;14.15;7.47;;;;;;;0.79;100.00;93029.59;5002200;28;20050;-78
2021/03/20 05:19:50;;;;;;;16.60;8.02;;;;;;;0.86;100.00;93042.44;5003017;28;20046;-78
2021/03/20 05:22:21;;;;;;;12.07;7.38;;;;;;;0.78;100.00;93045.72;5002909;28;20061;-78
2021/03/20 05:24:50;;;;;;;13.48;6.63;;;;;;;0.78;100.00;93039.84;4997523;28;20133;-78
2021/03/20 05:27:20;;;;;;;14.10;7.45;;;;;;;0.74;100.00;93046.19;5007205;28;20100;-80
2021/03/20 05:29:46;;;;;;;13.35;7.70;;;;;;;0.73;100.00;93047.09;5013202;28;20096;-78
2021/03/20 05:32:16;;;;;;;18.10;6.93;;;;;;;0.64;100.00;93046.28;5006927;28;20053;-78
2021/03/20 05:34:44;;;;;;;14.90;8.25;;;;;;;0.43;100.00;93046.69;5000811;28;20054;-77
2021/03/20 05:37:21;;;;;;;14.32;9.73;;;;;;;0.52;100.00;93046.56;4993103;28;20042;-78
2021/03/20 05:39:48;;;;;;;13.57;7.57;;;;;;;0.47;100.00;93053.03;4993530;28;20050;-77
2021/03/20 05:42:47;;;;;;;17.80;7.60;;;;;;;0.19;100.00;93045.66;4993141;28;20058;-77
2021/03/20 05:45:27;;;;;;;11.02;7.22;;;;;;;0.37;100.00;93053.16;5006494;28;20499;-79
2021/03/20 05:48:04;;;;;;;12.95;7.70;;;;;;;0.59;100.00;93048.47;4995414;28;20057;-78
2021/03/20 05:50:54;;;;;;;10.85;4.95;;;;;;;0.68;100.00;93054.38;4992368;28;21547;-78
2021/03/20 05:53:37;;;;;;;15.95;6.75;;;;;;;0.70;100.00;93047.44;4995507;28;20092;-78
2021/03/20 05:56:09;;;;;;;11.20;5.47;;;;;;;0.60;100.00;93045.81;5012555;28;20046;-79
2021/03/20 05:58:49;;;;;;;16.80;6.75;;;;;;;0.48;100.00;93044.50;5012855;28;20054;-79
2021/03/20 06:01:24;;;;;;;20.17;9.82;;;;;;;0.34;100.00;93036.56;4992888;28;20089;-78
2021/03/20 06:04:10;;;;;;;17.30;8.77;;;;;;;0.37;100.00;93036.25;5006141;28;20510;-79
2021/03/20 06:07:06;;;;;;;16.27;7.10;;;;;;;0.35;100.00;93040.66;5012222;28;20042;-80
2021/03/20 06:09:41;;;;;;;24.02;8.85;;;;;;;0.39;100.00;93043.69;5012265;28;20466;-80
2021/03/20 06:12:24;;;;;;;17.80;7.90;;;;;;;0.43;100.00;93041.63;5012280;28;20057;-80
2021/03/20 06:15:08;;;;;;;17.45;8.93;;;;;;;0.55;100.00;93042.16;5011740;28;20407;-80
2021/03/20 06:17:54;;;;;;;17.40;10.75;;;;;;;0.55;100.00;93039.66;5012279;28;20053;-79
2021/03/20 06:20:26;;;;;;;22.52;10.30;;;;;;;0.47;100.00;93030.28;5005760;28;20061;-79
2021/03/20 06:23:22;;;;;;;19.00;9.48;;;;;;;0.54;100.00;93038.84;4992885;28;20096;-79
2021/03/20 06:25:58;;;;;;;20.67;9.07;;;;;;;0.65;100.00;93036.03;4993605;28;20061;-79
2021/03/20 06:28:28;;;;;;;;;;;;;;;0.71;100.00;93038.91;4992937;28;20050;-79
2021/03/20 06:30:58;;;;;;;12.85;7.10;;;;;;;0.52;100.00;93035.69;4992473;28;19922;-79
2021/03/20 06:33:29;;;;;;;17.52;8.73;;;;;;;0.33;100.00;93036.72;5006696;28;20506;-79
2021/03/20 06:35:59;;;;;;;11.00;6.25;;;;;;;0.26;100.00;93031.47;5011636;28;20057;-79
2021/03/20 06:38:36;;;;;;;13.85;7.15;;;;;;;0.41;100.00;93014.00;5011757;28;20415;-80
2021/03/20 06:41:15;;;;;;;12.50;6.82;;;;;;;0.66;100.00;93037.63;5011842;28;20091;-79
2021/03/20 06:43:48;;;;;;;17.08;10.55;;;;;;;0.63;100.00;93020.25;5011665;28;20418;-79
2021/03/20 06:46:16;;;;;;;24.05;10.85;;;;;;;0.86;100.00;93024.72;5011845;28;20049;-80
2021/03/20 06:48:45;;;;;;;18.45;10.48;;;;;;;0.94;100.00;93011.31;5011352;28;20046;-79
2021/03/20 06:51:12;;;;;;;15.85;7.00;;;;;;;1.34;100.00;93046.91;5011018;28;20577;-79
2021/03/20 06:53:44;;;;;;;18.23;9.52;;;;;;;1.44;100.00;93044.25;5011247;28;20494;-79
2021/03/20 06:56:12;;;;;;;13.48;7.32;;;;;;;1.52;100.00;93046.00;5011391;28;20107;-79
2021/03/20 06:58:40;;;;;;;14.73;8.55;;;;;;;1.58;100.00;93051.19;5011518;28;20042;-80
2021/03/20 07:01:35;;;;;;;8.38;5.80;;;;;;;1.45;100.00;93036.47;5011137;28;20054;-80
2021/03/20 07:04:16;;;;;;;17.13;6.65;;;;;;;1.53;100.00;93045.03;4969744;28;20101;-80
2021/03/20 07:06:56;;;;;;;12.13;8.60;;;;;;;1.70;100.00;93054.22;4973312;28;20062;-82
2021/03/20 07:09:22;;;;;;;12.63;7.28;;;;;;;1.69;100.00;93050.13;4966472;28;20047;-82
2021/03/20 07:12:06;;;;;;;13.77;6.10;;;;;;;1.34;100.00;93019.06;4967372;28;20100;-81
2021/03/20 07:14:40;;;;;;;14.85;9.25;;;;;;;1.44;100.00;93056.91;4968642;28;20061;-81
2021/03/20 07:17:11;;;;;;;16.50;8.15;;;;;;;1.53;100.00;93047.59;4967165;28;20055;-81
2021/03/20 07:19:53;;;;;;;19.73;9.10;;;;;;;1.59;100.00;93049.47;4969074;28;20046;-81
2021/03/20 07:22:30;;;;;;;18.80;8.73;;;;;;;1.72;100.00;93049.78;4993968;28;20041;-81
2021/03/20 07:24:57;;;;;;;183.00;70.50;;;;;;;1.73;100.00;93042.97;5010820;28;20446;-80
2021/03/20 07:27:31;;;;;;;101.97;38.83;;;;;;;1.55;100.00;93026.22;5007548;28;20053;-82
2021/03/20 07:29:59;;;;;;;63.85;24.70;;;;;;;1.66;100.00;93036.97;5010598;28;20057;-82
2021/03/20 07:32:44;;;;;;;24.02;11.35;;;;;;;1.04;100.00;92973.22;5008032;28;20061;-82
2021/03/20 07:38:24;;;;;;;184.30;63.97;;;;;;;0.78;100.00;92987.56;4978131;28;20082;-81
2021/03/20 07:41:18;;;;;;;221.32;74.32;;;;;;;0.91;100.00;93017.47;4991309;28;20065;-81
2021/03/20 07:44:01;;;;;;;65.30;29.70;;;;;;;1.31;100.00;93039.66;4991001;28;20069;-81
2021/03/20 07:46:33;;;;;;;158.73;57.22;;;;;;;1.27;100.00;93044.25;4990479;28;20443;-80
2021/03/20 07:49:20;;;;;;;47.67;17.60;;;;;;;0.45;100.00;92923.50;4994724;28;20045;-82
2021/03/20 07:52:06;;;;;;;92.82;35.13;;;;;;;0.17;100.00;92916.97;5009275;28;20054;-85
2021/03/20 07:55:17;;;;;;;40.10;19.13;;;;;;;1.20;100.00;93021.28;5007817;28;20491;-84
2021/03/20 07:58:34;;;;;;;11.35;6.13;;;;;;;0.65;100.00;92934.16;5008699;28;20065;-84
2021/03/20 08:01:07;;;;;;;15.23;8.90;;;;;;;1.54;100.00;93055.03;5009412;28;20053;-84
2021/03/20 08:04:16;;;;;;;15.13;8.88;;;;;;;1.23;100.00;92989.03;5010950;28;20491;-84
2021/03/20 08:09:48;;;;;;;17.85;10.73;;;;;;;1.77;100.00;93031.59;5006690;28;20852;-81
2021/03/20 08:12:14;;;;;;;;;;;;;;;2.08;100.00;93060.53;5010175;28;20461;-81
2021/03/20 08:15:06;;;;;;;12.20;7.60;;;;;;;2.10;100.00;93067.00;5010540;28;19928;-82
2021/03/20 08:21:31;;;;;;;15.57;7.05;;;;;;;1.70;100.00;93005.31;4949762;28;20056;-82
2021/03/20 08:24:42;;;;;;;13.13;7.32;;;;;;;2.34;100.00;93072.19;4976702;28;20050;-81
2021/03/20 08:27:30;;;;;;;10.02;6.15;;;;;;;2.03;100.00;93012.84;4999837;28;20641;-80
2021/03/20 08:30:35;;;;;;;9.70;5.43;;;;;;;2.35;100.00;93061.88;5004243;28;20054;-80
2021/03/20 08:33:19;;;;;;;15.32;6.90;;;;;;;2.48;100.00;93078.31;5009553;28;20129;-80
2021/03/20 08:35:55;;;;;;;12.23;5.68;;;;;;;2.42;100.00;93078.97;5009598;28;20053;-82
2021/03/20 08:38:42;;;;;;;10.63;6.55;;;;;;;2.48;100.00;93070.72;5009627;28;20054;-82
2021/03/20 08:41:13;;;;;;;13.30;6.60;;;;;;;2.31;100.00;93058.06;5009520;28;20054;-83
2021/03/20 08:44:29;;;;;;;12.52;7.80;;;;;;;2.28;100.00;93071.09;5009400;28;20487;-80
2021/03/20 08:47:15;;;;;;;12.18;7.53;;;;;;;1.99;100.00;93068.13;4948663;29;20047;-80
2021/03/20 08:49:55;;;;;;;18.70;7.47;;;;;;;1.84;100.00;93032.53;4948772;29;20051;-80
2021/03/20 08:52:26;;;;;;;14.77;8.90;;;;;;;2.00;100.00;93046.91;4996577;28;20049;-80
2021/03/20 08:55:16;;;;;;;11.52;7.80;;;;;;;2.22;100.00;93062.38;5009320;28;20120;-80
2021/03/20 08:57:50;;;;;;;13.73;7.63;;;;;;;2.38;100.00;93064.09;5009305;28;20705;-79
2021/03/20 09:00:22;;;;;;;11.98;6.68;;;;;;;2.43;100.00;93068.66;5009693;28;20057;-79
2021/03/20 09:02:53;;;;;;;18.67;8.63;;;;;;;2.28;100.00;93053.34;5009246;28;21070;-79
2021/03/20 09:05:30;;;;;;;15.95;8.25;;;;;;;2.44;100.00;93072.00;5008942;28;20049;-82
2021/03/20 09:08:03;;;;;;;15.13;7.85;;;;;;;2.51;100.00;93062.78;5009800;28;20119;-80
2021/03/20 09:10:37;;;;;;;20.30;9.13;;;;;;;2.51;100.00;93060.25;5009192;28;20060;-79
2021/03/20 09:13:25;;;;;;;17.10;7.40;;;;;;;2.70;100.00;93065.88;5009416;28;20049;-81
2021/03/20 09:15:57;;;;;;;16.30;9.23;;;;;;;2.66;100.00;93067.97;5008920;28;20107;-80
2021/03/20 09:18:24;;;;;;;15.13;9.05;;;;;;;2.28;100.00;93055.88;5009323;28;20104;-81
2021/03/20 09:20:53;;;;;;;16.70;7.85;;;;;;;2.48;100.00;93055.50;4998345;28;20061;-80
2021/03/20 09:23:26;;;;;;;14.32;7.22;;;;;;;2.66;100.00;93063.69;4989041;28;20083;-82
2021/03/20 09:26:02;;;;;;;40.15;19.77;;;;;;;2.57;100.00;93053.72;4989146;28;20515;-82
2021/03/20 09:29:07;;;;;;;23.23;10.88;;;;;;;2.50;100.00;93051.84;4990243;28;20100;-82
2021/03/20 09:32:19;;;;;;;33.90;14.18;;;;;;;2.51;100.00;93045.03;4989647;28;20058;-82
2021/03/20 09:34:53;;;;;;;43.22;19.13;;;;;;;2.23;100.00;93045.44;4989773;28;20415;-82
2021/03/20 09:37:57;;;;;;;14.23;7.80;;;;;;;2.52;100.00;93041.53;4989391;28;20047;-83
2021/03/20 09:40:49;;;;;;;18.65;9.32;;;;;;;3.04;100.00;93034.31;4989967;28;20415;-83
2021/03/20 09:43:32;;;;;;;13.80;6.75;;;;;;;2.53;100.00;93002.56;4989602;28;20052;-84
2021/03/20 09:46:43;;;;;;;13.88;8.07;;;;;;;2.89;100.00;93026.63;4989701;28;20058;-84
2021/03/20 09:49:38;;;;;;;15.13;8.10;;;;;;;3.40;100.00;93005.84;4989040;28;20065;-84
2021/03/20 09:52:08;;;;;;;14.73;7.65;;;;;;;3.80;100.00;93022.69;4989159;28;20051;-84
2021/03/20 09:54:43;;;;;;;17.42;7.70;;;;;;;4.09;100.00;93009.22;4989546;28;20123;-84
2021/03/20 09:57:55;;;;;;;12.50;7.03;;;;;;;4.33;96.63;93032.00;4991012;28;20050;-84
2021/03/20 10:01:05;;;;;;;16.85;8.85;;;;;;;4.37;98.07;93007.81;4957939;28;20047;-83
2021/03/20 10:03:52;;;;;;;11.65;6.55;;;;;;;4.46;96.89;93019.50;4913362;29;20048;-83
2021/03/20 10:06:52;;;;;;;17.50;9.82;;;;;;;4.69;96.82;93018.59;4993141;28;20050;-83
2021/03/20 10:09:26;;;;;;;13.48;6.70;;;;;;;4.55;92.22;92982.03;4975889;28;20053;-83
2021/03/20 10:12:21;;;;;;;47.20;16.67;;;;;;;4.60;89.11;93027.28;4992811;28;20125;-83
2021/03/20 10:15:28;;;;;;;20.50;8.23;;;;;;;4.67;93.87;93021.31;4975580;28;20091;-83
2021/03/20 10:18:02;;;;;;;19.48;8.65;;;;;;;4.50;90.22;93019.91;4992758;28;20294;-83
2021/03/20 10:20:39;;;;;;;92.22;27.00;;;;;;;4.13;92.20;93020.59;5000374;28;20473;-83
2021/03/20 10:23:14;;;;;;;10.68;6.60;;;;;;;3.98;94.61;93019.81;5011987;28;20049;-83
2021/03/20 10:25:49;;;;;;;17.52;7.60;;;;;;;3.92;96.55;93007.78;5012272;28;20080;-83
2021/03/20 10:28:16;;;;;;;10.45;5.32;;;;;;;3.68;94.62;92985.00;5005090;28;20049;-83
2021/03/20 10:30:56;;;;;;;117.57;33.75;;;;;;;3.58;99.03;93004.75;5012312;28;20131;-83
2021/03/20 10:33:27;;;;;;;15.00;7.60;;;;;;;3.77;96.77;93000.94;5008494;28;20097;-83
2021/03/20 10:36:08;;;;;;;89.13;25.05;;;;;;;3.48;97.53;93002.47;4992002;28;20061;-84
2021/03/20 10:38:38;;;;;;;35.92;15.75;;;;;;;3.60;98.14;92988.41;4992396;28;20124;-87
2021/03/20 10:41:09;;;;;;;21.20;9.07;;;;;;;3.83;96.92;92999.47;4991982;28;20439;-84
2021/03/20 10:43:42;;;;;;;12.63;5.80;;;;;;;4.12;98.42;92995.38;4992085;28;20553;-84
2021/03/20 10:46:16;;;;;;;15.35;5.63;;;;;;;4.45;98.06;92989.13;4991869;28;20460;-84
2021/03/20 10:48:42;;;;;;;17.55;7.03;;;;;;;4.71;98.75;92970.84;4992217;28;20054;-83
2021/03/20 10:51:09;;;;;;;11.70;6.65;;;;;;;4.95;94.91;92992.63;4992153;28;20460;-84
2021/03/20 10:53:40;;;;;;;12.65;5.97;;;;;;;4.50;94.88;92951.25;4992150;28;20050;-84
2021/03/20 10:56:22;;;;;;;18.27;7.47;;;;;;;4.36;94.88;92961.25;4992041;28;20392;-83
2021/03/20 10:58:48;;;;;;;97.20;27.38;;;;;;;4.46;98.66;92978.78;4991861;28;20054;-83
2021/03/20 11:01:15;;;;;;;;;;;;;;;4.07;99.74;92975.56;4992476;28;20080;-83
2021/03/20 11:03:43;;;;;;;20.17;7.75;;;;;;;3.43;100.00;92962.34;4992132;28;19929;-83
2021/03/20 11:06:11;;;;;;;10.10;6.05;;;;;;;3.70;100.00;92975.44;4991893;28;20062;-83
2021/03/20 11:08:38;;;;;;;9.32;6.45;;;;;;;3.72;99.63;92965.13;4991039;28;20046;-83
2021/03/20 11:11:15;;;;;;;24.83;9.95;;;;;;;3.85;99.01;92969.59;4991922;28;20046;-83
2021/03/20 11:13:44;;;;;;;85.53;28.42;;;;;;;3.79;99.08;92955.06;4991877;28;20452;-84
2021/03/20 11:16:13;;;;;;;31.25;12.52;;;;;;;3.82;100.00;92944.53;4991417;28;20054;-84
2021/03/20 11:18:44;;;;;;;17.20;8.15;;;;;;;3.39;99.92;92917.16;4991599;28;20595;-84
2021/03/20 11:21:30;;;;;;;54.63;20.27;;;;;;;3.68;100.00;92936.72;5004870;28;20669;-83
2021/03/20 11:23:57;;;;;;;;;;;;;;;3.93;99.53;92953.50;5011726;28;20058;-83
2021/03/20 11:26:34;;;;;;;12.35;6.38;;;;;;;3.53;98.29;92918.13;5010931;28;20396;-83
2021/03/20 11:29:02;;;;;;;10.75;6.10;;;;;;;3.76;98.49;92915.53;5011035;28;20049;-83
2021/03/20 11:31:36;;;;;;;12.68;5.38;;;;;;;3.91;98.07;92933.31;5011152;28;20809;-83
2021/03/20 11:34:09;;;;;;;12.40;6.25;;;;;;;4.20;96.24;92910.59;5002004;28;20057;-83
2021/03/20 11:36:36;;;;;;;8.45;4.72;;;;;;;3.83;95.78;92934.19;4991405;28;20069;-83
2021/03/20 11:39:07;;;;;;;10.75;4.70;;;;;;;4.25;97.57;92901.47;4991366;28;20050;-83
2021/03/20 11:41:36;;;;;;;7.43;4.63;;;;;;;4.53;93.47;92931.31;4991038;28;20141;-83
2021/03/20 11:44:07;;;;;;;14.25;5.85;;;;;;;4.78;93.98;92920.03;4991354;28;20054;-84
2021/03/20 11:46:37;;;;;;;7.82;4.63;;;;;;;4.93;93.04;92913.13;4990905;28;20055;-83
2021/03/20 11:49:06;;;;;;;9.25;5.50;;;;;;;4.97;90.93;92925.47;4991230;28;20241;-82
2021/03/20 11:51:39;;;;;;;7.95;4.32;;;;;;;4.88;90.11;92935.00;4990743;28;20466;-82
2021/03/20 11:54:20;;;;;;;7.78;4.32;;;;;;;4.49;91.22;92922.47;4990779;28;20046;-82
2021/03/20 11:56:54;;;;;;;25.63;11.43;;;;;;;4.73;92.43;92928.22;4991052;28;20096;-82
2021/03/20 11:59:40;;;;;;;10.30;5.85;;;;;;;4.55;91.89;92903.94;4995475;28;20046;-82
2021/03/20 12:02:10;;;;;;;7.93;4.68;;;;;;;4.91;93.71;92911.72;5019107;28;20064;-82
2021/03/20 12:04:37;;;;;;;15.98;6.97;;;;;;;4.85;92.81;92908.16;5019196;28;20100;-82
2021/03/20 12:07:23;;;;;;;;;;;;;;;4.88;92.37;92910.34;5018575;28;20050;-82
2021/03/20 12:09:50;;;;;;;7.00;3.75;;;;;;;4.45;91.01;92892.50;5014463;28;19930;-82
2021/03/20 12:12:17;;;;;;;6.43;4.35;;;;;;;4.66;93.39;92886.63;5010397;28;20052;-82
2021/03/20 12:14:45;;;;;;;9.48;5.40;;;;;;;4.95;97.35;92877.28;5009958;28;20071;-82
2021/03/20 12:17:18;;;;;;;9.30;5.65;;;;;;;4.59;93.94;92866.22;5009559;28;20085;-82
2021/03/20 12:19:54;;;;;;;10.90;5.38;;;;;;;5.00;94.61;92897.91;5008027;28;20053;-82